TPOK1: Kansas River, State-Line, KS

                                SHEF ID:       TPOK1     MARAIS DES CYGNES R NR KS-MO ST
STATION TYPE:

STAGE STAGE(2) RIV-FLOW BAT-LOAD
ft ft cfs volt
Ccp-Rev Ccp-Rev Ccp-Rev Ccp-Rev
(America/Chicago)
07/09 00:00 7.94 7.94 2091 12.48
07/09 01:00 7.95 7.95 2097 12.46
07/09 02:00 8.02 7.95 2139 12.44
07/09 03:00 8.01 7.96 2133 12.42
07/09 04:00 8.02 7.98 2139 12.42
07/09 05:00 8.05 8.01 2157 12.40
07/09 06:00 8.06 8.05 2163 12.37
07/09 07:00 8.09 8.06 2182 12.35
07/09 08:00 8.10 8.05 2188 12.37
07/09 09:00 8.07 8.06 2169 12.63
07/09 10:00 8.09 8.05 2182 13.16
07/09 11:00 8.06 8.06 2163 13.03
07/09 12:00 8.09 8.05 2182 13.39
07/09 13:00 8.07 8.03 2169 13.36
07/09 14:00 8.09 8.04 2182 13.25
07/09 15:00 8.07 8.06 2169 13.13
07/09 16:00 8.07 8.04 2169 13.07
07/09 17:00 8.08 8.07 2175 13.09
07/09 18:00 8.09 8.05 2182 13.01
07/09 19:00 8.06 8.07 2163 12.73
07/09 20:00 8.08 ---- 2175 ----
07/09 21:00 ---- ---- ---- ----
07/09 22:00 ---- ---- ---- ----
07/09 23:00 ---- ---- ---- ----
Data processed at Fri 10Jul2026 04:52 GMT

NOTICE: If you are parsing this page

Please convert to using our Data API. Starting early 2026 we will be migrating to: https://water.usace.army.mil with modern pages rendered in JavaScript. When this migration completes you will no longer be able to scrape this page! CWMSDataAPI (CDA)

Timeseries IDs (TSIDs)

TSIDs used from left to right in the data table
MKSL.Stage.Inst.1Hour.0.Ccp-Rev
MKSL.Stage-Alt.Inst.1Hour.0.Ccp-Rev
MKSL.Flow.Inst.1Hour.0.Ccp-Rev
MKSL.Volt-Battery Load.Inst.1Hour.0.Ccp-Rev

                            

All information presented herein is the property of the government of the United States of America and may be revised or deleted at any time without prior notice. Dissemination of this information without the expressed written consent of the Public Affairs Office, Tulsa District U.S. Army Corps of Engineers is strictly prohibited. These data are gathered electronically and, as presented, have NOT undergone any form of quality control. These data are NOT guaranteed to be valid or correct.